Time;durP1;ratioP1;P1;durP2;ratioP2;P2;SDS_P1;SDS_P2;PMS_P1;PMS_P2;Temp;Humidity;BMP_temperature;BMP_pressure;BME280_temperature;BME280_humidity;BME280_pressure;Samples;Min_cycle;Max_cycle;Signal;HPM_P1;HPM_P2
2022/03/30 00:01:21;;;;;;;18.25;6.65;;;;;;;;;;5063229;28;20151;-81
2022/03/30 00:03:47;;;;;;;12.85;4.45;;;;;;;;;;5064110;28;20040;-83
2022/03/30 00:06:17;;;;;;;27.00;7.95;;;;;;;;;;5066749;28;20099;-82
2022/03/30 00:08:44;;;;;;;16.00;5.32;;;;;;;;;;5063427;28;20700;-82
2022/03/30 00:11:12;;;;;;;22.15;6.15;;;;;;;;;;5070357;28;20153;-82
2022/03/30 00:13:39;;;;;;;21.52;6.07;;;;;;;;;;5067090;28;20157;-82
2022/03/30 00:16:07;;;;;;;30.88;5.53;;;;;;;;;;5063684;28;20052;-82
2022/03/30 00:18:35;;;;;;;24.15;5.32;;;;;;;;;;5064618;28;20458;-82
2022/03/30 00:21:01;;;;;;;20.42;5.45;;;;;;;;;;5073077;28;20078;-82
2022/03/30 00:23:28;;;;;;;19.58;5.00;;;;;;;;;;5065979;28;20049;-82
2022/03/30 00:25:55;;;;;;;21.67;6.10;;;;;;;;;;5065965;28;20163;-82
2022/03/30 00:28:23;;;;;;;21.35;4.45;;;;;;;;;;5065505;28;20481;-82
2022/03/30 00:30:50;;;;;;;13.80;4.28;;;;;;;;;;5063976;28;20056;-82
2022/03/30 00:33:17;;;;;;;30.45;6.53;;;;;;;;;;5065606;28;20056;-82
2022/03/30 00:35:46;;;;;;;22.33;6.18;;;;;;;;;;5072113;28;20284;-82
2022/03/30 00:38:12;;;;;;;27.85;6.40;;;;;;;;;;5064459;28;21552;-82
2022/03/30 00:40:39;;;;;;;19.88;6.60;;;;;;;;;;5070821;28;20538;-82
2022/03/30 00:43:06;;;;;;;29.90;6.25;;;;;;;;;;5067981;28;20123;-82
2022/03/30 00:45:32;;;;;;;15.93;5.57;;;;;;;;;;5072582;28;20118;-82
2022/03/30 00:47:59;;;;;;;14.07;4.72;;;;;;;;;;5070638;28;20124;-82
2022/03/30 00:50:26;;;;;;;23.00;5.80;;;;;;;;;;5072197;28;20091;-82
2022/03/30 00:52:56;;;;;;;16.95;6.78;;;;;;;;;;5069567;28;20152;-82
2022/03/30 00:55:24;;;;;;;24.17;5.57;;;;;;;;;;5069433;28;20514;-82
2022/03/30 00:57:52;;;;;;;20.30;5.38;;;;;;;;;;5069739;28;20501;-82
2022/03/30 01:00:20;;;;;;;17.15;5.30;;;;;;;;;;5068248;28;20076;-82
2022/03/30 01:02:48;;;;;;;17.25;5.75;;;;;;;;;;5071172;28;20044;-82
2022/03/30 01:05:15;;;;;;;19.15;5.35;;;;;;;;;;5074993;28;20084;-82
2022/03/30 01:07:42;;;;;;;19.77;6.22;;;;;;;;;;5069868;28;20487;-82
2022/03/30 01:10:13;;;;;;;19.00;5.43;;;;;;;;;;5071485;28;20056;-83
2022/03/30 01:12:40;;;;;;;24.40;7.13;;;;;;;;;;5071150;28;20083;-83
2022/03/30 01:15:08;;;;;;;24.42;7.32;;;;;;;;;;5067281;28;20488;-83
2022/03/30 01:17:35;;;;;;;16.88;5.00;;;;;;;;;;5071355;28;20444;-83
2022/03/30 01:20:01;;;;;;;16.15;5.55;;;;;;;;;;5072511;28;20505;-83
2022/03/30 01:22:30;;;;;;;23.52;5.10;;;;;;;;;;5069826;28;20292;-83
2022/03/30 01:24:57;;;;;;;21.83;6.07;;;;;;;;;;5074148;28;20079;-83
2022/03/30 01:27:24;;;;;;;19.83;6.03;;;;;;;;;;5069401;28;20052;-83
2022/03/30 01:32:36;;;;;;;18.15;6.10;;;;;;;;;;5068343;28;20060;-83
2022/03/30 01:35:06;;;;;;;15.20;4.97;;;;;;;;;;5069611;28;20097;-83
2022/03/30 01:37:34;;;;;;;20.85;5.63;;;;;;;;;;5065890;28;20044;-83
2022/03/30 01:40:03;;;;;;;19.75;5.70;;;;;;;;;;5066165;28;20052;-83
2022/03/30 01:42:30;;;;;;;26.55;6.55;;;;;;;;;;5067812;28;20390;-83
2022/03/30 01:44:56;;;;;;;21.27;6.38;;;;;;;;;;5068730;28;20129;-83
2022/03/30 01:47:24;;;;;;;14.85;5.50;;;;;;;;;;5069181;28;20119;-83
2022/03/30 01:49:51;;;;;;;18.27;5.97;;;;;;;;;;5064607;28;20361;-83
2022/03/30 01:52:18;;;;;;;17.52;6.60;;;;;;;;;;5070685;28;20103;-83
2022/03/30 01:54:46;;;;;;;14.50;5.50;;;;;;;;;;5068662;28;20478;-83
2022/03/30 01:57:13;;;;;;;27.10;6.07;;;;;;;;;;5067619;28;20080;-83
2022/03/30 01:59:40;;;;;;;15.82;5.78;;;;;;;;;;5068416;28;20579;-83
2022/03/30 02:02:08;;;;;;;18.80;6.93;;;;;;;;;;5067729;28;20091;-83
2022/03/30 02:04:35;;;;;;;20.77;5.68;;;;;;;;;;5068510;28;20098;-83
2022/03/30 02:07:02;;;;;;;18.38;6.68;;;;;;;;;;5070233;28;20167;-83
2022/03/30 02:09:28;;;;;;;14.45;6.47;;;;;;;;;;5068004;28;20154;-83
2022/03/30 02:11:56;;;;;;;19.30;6.40;;;;;;;;;;5070000;28;20084;-83
2022/03/30 02:14:23;;;;;;;18.10;5.60;;;;;;;;;;5068753;28;20052;-83
2022/03/30 02:16:50;;;;;;;19.63;5.78;;;;;;;;;;5067559;28;20261;-83
2022/03/30 02:19:17;;;;;;;21.70;6.28;;;;;;;;;;5067750;28;20493;-83
2022/03/30 02:21:44;;;;;;;16.88;5.72;;;;;;;;;;5066088;28;20098;-83
2022/03/30 02:24:11;;;;;;;18.13;5.45;;;;;;;;;;5066560;28;20136;-83
2022/03/30 02:26:38;;;;;;;22.00;6.55;;;;;;;;;;5068442;28;20070;-83
2022/03/30 02:29:06;;;;;;;20.48;7.15;;;;;;;;;;5073448;28;20041;-83
2022/03/30 02:31:33;;;;;;;19.10;6.07;;;;;;;;;;5063097;28;20051;-83
2022/03/30 02:34:00;;;;;;;17.20;7.22;;;;;;;;;;5072717;28;20451;-83
2022/03/30 02:36:26;;;;;;;16.95;5.90;;;;;;;;;;5074038;28;20057;-83
2022/03/30 02:38:53;;;;;;;32.78;7.15;;;;;;;;;;5077841;28;20053;-83
2022/03/30 02:41:19;;;;;;;17.88;5.80;;;;;;;;;;5071239;28;20052;-83
2022/03/30 02:43:46;;;;;;;18.13;5.97;;;;;;;;;;5069974;28;20047;-83
2022/03/30 02:46:14;;;;;;;22.67;6.57;;;;;;;;;;5068134;28;20071;-83
2022/03/30 02:48:41;;;;;;;17.17;5.93;;;;;;;;;;5069416;28;20133;-83
2022/03/30 02:51:09;;;;;;;26.67;7.10;;;;;;;;;;5067692;28;20079;-83
2022/03/30 02:53:36;;;;;;;15.23;6.03;;;;;;;;;;5066981;28;20118;-83
2022/03/30 02:56:04;;;;;;;15.15;5.82;;;;;;;;;;5068973;28;20048;-83
2022/03/30 02:58:31;;;;;;;22.77;7.32;;;;;;;;;;5068295;28;20122;-83
2022/03/30 03:00:58;;;;;;;21.48;6.43;;;;;;;;;;5070850;28;20068;-84
2022/03/30 03:03:26;;;;;;;18.58;5.75;;;;;;;;;;5068783;28;20052;-82
2022/03/30 03:05:53;;;;;;;22.42;6.40;;;;;;;;;;5068850;28;20091;-82
2022/03/30 03:08:20;;;;;;;16.13;6.20;;;;;;;;;;5069144;28;20530;-82
2022/03/30 03:10:48;;;;;;;22.77;5.28;;;;;;;;;;5068169;28;20142;-82
2022/03/30 03:13:16;;;;;;;25.55;6.47;;;;;;;;;;5070316;28;20044;-82
2022/03/30 03:15:43;;;;;;;16.77;6.78;;;;;;;;;;5067432;28;20448;-82
2022/03/30 03:18:13;;;;;;;24.58;6.53;;;;;;;;;;5067377;28;20114;-82
2022/03/30 03:20:43;;;;;;;24.88;6.35;;;;;;;;;;5073405;28;20490;-82
2022/03/30 03:23:11;;;;;;;14.77;5.93;;;;;;;;;;5072411;28;20076;-82
2022/03/30 03:25:37;;;;;;;18.80;7.45;;;;;;;;;;5066642;28;20382;-82
2022/03/30 03:28:05;;;;;;;19.42;6.30;;;;;;;;;;5067308;28;20048;-82
2022/03/30 03:30:32;;;;;;;20.83;6.28;;;;;;;;;;5065277;28;20044;-82
2022/03/30 03:32:59;;;;;;;24.77;6.70;;;;;;;;;;5066057;28;20072;-82
2022/03/30 03:35:26;;;;;;;17.40;5.30;;;;;;;;;;5067732;28;20675;-82
2022/03/30 03:37:54;;;;;;;17.92;5.80;;;;;;;;;;5065502;28;20260;-82
2022/03/30 03:40:21;;;;;;;17.73;5.93;;;;;;;;;;5066074;28;20084;-82
2022/03/30 03:42:48;;;;;;;17.92;5.78;;;;;;;;;;5066716;28;20087;-82
2022/03/30 03:45:16;;;;;;;18.45;7.32;;;;;;;;;;5050779;28;20052;-82
2022/03/30 03:47:42;;;;;;;16.60;5.88;;;;;;;;;;5061453;28;20045;-82
2022/03/30 03:50:10;;;;;;;23.27;6.32;;;;;;;;;;5064646;28;20379;-82
2022/03/30 03:52:37;;;;;;;17.67;6.60;;;;;;;;;;5063537;28;20122;-82
2022/03/30 03:55:06;;;;;;;18.35;5.80;;;;;;;;;;5057253;28;20049;-82
2022/03/30 03:57:33;;;;;;;17.42;5.63;;;;;;;;;;5072682;28;20137;-82
2022/03/30 04:00:00;;;;;;;28.35;8.75;;;;;;;;;;5067292;28;20052;-82
2022/03/30 04:02:27;;;;;;;17.00;6.75;;;;;;;;;;5080092;28;20519;-82
2022/03/30 04:04:53;;;;;;;25.05;6.93;;;;;;;;;;5066518;28;20124;-82
2022/03/30 04:07:26;;;;;;;19.05;6.60;;;;;;;;;;5073189;28;20072;-82
2022/03/30 04:09:55;;;;;;;27.98;6.68;;;;;;;;;;5066041;28;20058;-82
2022/03/30 04:12:23;;;;;;;27.15;7.40;;;;;;;;;;5082500;28;20401;-82
2022/03/30 04:14:50;;;;;;;17.02;6.43;;;;;;;;;;5070356;28;20106;-82
2022/03/30 04:17:17;;;;;;;17.55;6.57;;;;;;;;;;5080648;28;20097;-82
2022/03/30 04:19:44;;;;;;;23.73;5.63;;;;;;;;;;5075792;28;20040;-82
2022/03/30 04:22:11;;;;;;;17.95;6.10;;;;;;;;;;5073876;28;20044;-82
2022/03/30 04:24:38;;;;;;;17.45;6.68;;;;;;;;;;5074710;28;20102;-82
2022/03/30 04:27:05;;;;;;;19.65;6.05;;;;;;;;;;5070844;28;20041;-82
2022/03/30 04:29:33;;;;;;;19.42;5.82;;;;;;;;;;5066630;28;20090;-82
2022/03/30 04:32:00;;;;;;;16.08;5.57;;;;;;;;;;5067749;28;20072;-82
2022/03/30 04:34:27;;;;;;;21.35;6.22;;;;;;;;;;5068809;28;20425;-82
2022/03/30 04:36:54;;;;;;;21.95;6.25;;;;;;;;;;5069934;28;20097;-82
2022/03/30 04:39:21;;;;;;;16.60;5.85;;;;;;;;;;5069949;28;20049;-82
2022/03/30 04:41:48;;;;;;;19.38;6.75;;;;;;;;;;5067744;28;20067;-82
2022/03/30 04:44:15;;;;;;;20.00;6.75;;;;;;;;;;5067949;28;20094;-82
2022/03/30 04:46:43;;;;;;;19.45;5.82;;;;;;;;;;5071526;28;20045;-82
2022/03/30 04:49:10;;;;;;;17.73;5.55;;;;;;;;;;5075238;28;20106;-82
2022/03/30 04:51:37;;;;;;;18.52;6.00;;;;;;;;;;5074179;28;20041;-82
2022/03/30 04:54:03;;;;;;;20.63;5.55;;;;;;;;;;5073034;28;20044;-82
2022/03/30 04:56:30;;;;;;;19.48;5.97;;;;;;;;;;5066996;28;20068;-82
2022/03/30 04:58:56;;;;;;;17.33;5.55;;;;;;;;;;5062712;28;20137;-82
2022/03/30 05:01:23;;;;;;;24.33;5.82;;;;;;;;;;5069255;28;20040;-82
2022/03/30 05:03:51;;;;;;;19.40;6.03;;;;;;;;;;5074626;28;20053;-82
2022/03/30 05:06:24;;;;;;;22.88;6.63;;;;;;;;;;5078017;28;20109;-82
2022/03/30 05:08:51;;;;;;;24.92;5.45;;;;;;;;;;5061562;28;20474;-82
2022/03/30 05:11:17;;;;;;;24.45;7.22;;;;;;;;;;5068859;28;20125;-82
2022/03/30 05:13:44;;;;;;;18.35;5.85;;;;;;;;;;5069272;28;20049;-82
2022/03/30 05:16:12;;;;;;;26.25;5.47;;;;;;;;;;5067076;28;20076;-82
2022/03/30 05:18:38;;;;;;;21.58;6.80;;;;;;;;;;5067611;28;20485;-82
2022/03/30 05:21:06;;;;;;;20.02;4.97;;;;;;;;;;5066111;28;20091;-82
2022/03/30 05:23:36;;;;;;;17.52;5.50;;;;;;;;;;5064315;28;20088;-82
2022/03/30 05:26:03;;;;;;;22.77;6.75;;;;;;;;;;5068247;28;20055;-82
2022/03/30 05:28:29;;;;;;;20.15;5.93;;;;;;;;;;5070845;28;20125;-82
2022/03/30 05:30:56;;;;;;;29.98;6.55;;;;;;;;;;5066460;28;20090;-82
2022/03/30 05:33:22;;;;;;;23.88;7.07;;;;;;;;;;5067115;28;20151;-82
2022/03/30 05:35:50;;;;;;;21.35;6.10;;;;;;;;;;5067488;28;20041;-83
2022/03/30 05:38:18;;;;;;;17.48;6.10;;;;;;;;;;5070603;28;20528;-82
2022/03/30 05:40:44;;;;;;;21.05;5.63;;;;;;;;;;5070514;28;20505;-82
2022/03/30 05:43:11;;;;;;;28.02;6.00;;;;;;;;;;5067826;28;20090;-82
2022/03/30 05:45:37;;;;;;;19.63;5.55;;;;;;;;;;5068662;28;20040;-82
2022/03/30 05:48:05;;;;;;;16.52;5.03;;;;;;;;;;5066125;28;20148;-82
2022/03/30 05:50:31;;;;;;;17.20;6.07;;;;;;;;;;5064989;28;20470;-81
2022/03/30 05:52:58;;;;;;;26.52;6.55;;;;;;;;;;5067079;28;20049;-82
2022/03/30 05:55:26;;;;;;;19.95;5.68;;;;;;;;;;5070087;28;20557;-82
2022/03/30 05:57:53;;;;;;;19.77;6.65;;;;;;;;;;5068954;28;20529;-81
2022/03/30 06:00:19;;;;;;;18.00;5.85;;;;;;;;;;5068963;28;20118;-82
2022/03/30 06:02:46;;;;;;;17.65;5.63;;;;;;;;;;5068808;28;20052;-81
2022/03/30 06:05:12;;;;;;;17.35;7.30;;;;;;;;;;5068717;28;20098;-82
2022/03/30 06:07:46;;;;;;;17.98;6.55;;;;;;;;;;5068068;28;20540;-82
2022/03/30 06:10:12;;;;;;;19.88;6.05;;;;;;;;;;5067282;28;20076;-82
2022/03/30 06:12:40;;;;;;;18.75;6.03;;;;;;;;;;5066425;28;20047;-82
2022/03/30 06:15:09;;;;;;;16.13;4.85;;;;;;;;;;5065913;28;20142;-81
2022/03/30 06:17:35;;;;;;;19.10;5.72;;;;;;;;;;5059860;28;20678;-82
2022/03/30 06:20:03;;;;;;;23.50;6.85;;;;;;;;;;5069673;28;20624;-82
2022/03/30 06:22:30;;;;;;;15.98;6.82;;;;;;;;;;5064595;28;20064;-83
2022/03/30 06:24:57;;;;;;;19.25;6.00;;;;;;;;;;5053328;28;20456;-82
2022/03/30 06:27:24;;;;;;;20.88;6.57;;;;;;;;;;5068938;28;20041;-81
2022/03/30 06:29:52;;;;;;;17.92;6.15;;;;;;;;;;5059599;28;20048;-81
2022/03/30 06:32:19;;;;;;;15.77;5.68;;;;;;;;;;5060261;28;20048;-82
2022/03/30 06:34:45;;;;;;;18.70;6.78;;;;;;;;;;5061140;28;20140;-82
2022/03/30 06:37:12;;;;;;;23.63;8.63;;;;;;;;;;5069131;28;20041;-82
2022/03/30 06:39:38;;;;;;;22.20;6.07;;;;;;;;;;5064657;28;20451;-83
2022/03/30 06:42:06;;;;;;;20.10;5.70;;;;;;;;;;5068641;28;20816;-82
2022/03/30 06:44:32;;;;;;;17.92;7.18;;;;;;;;;;5068454;28;20501;-83
2022/03/30 06:47:00;;;;;;;15.18;4.85;;;;;;;;;;5064990;28;20049;-82
2022/03/30 06:49:27;;;;;;;17.95;6.47;;;;;;;;;;5066167;28;20117;-82
2022/03/30 06:51:53;;;;;;;17.30;5.97;;;;;;;;;;5067355;28;20418;-82
2022/03/30 06:54:20;;;;;;;16.58;5.97;;;;;;;;;;5054678;28;20060;-82
2022/03/30 06:56:47;;;;;;;21.13;6.55;;;;;;;;;;5059428;28;20098;-82
2022/03/30 06:59:13;;;;;;;19.60;6.38;;;;;;;;;;5067953;28;20065;-82
2022/03/30 07:01:40;;;;;;;15.15;7.53;;;;;;;;;;5065390;28;20558;-82
2022/03/30 07:04:08;;;;;;;23.42;7.15;;;;;;;;;;5061026;28;20052;-82
2022/03/30 07:06:35;;;;;;;18.40;5.70;;;;;;;;;;5065873;28;20114;-82
2022/03/30 07:11:45;;;;;;;19.50;6.30;;;;;;;;;;5062172;28;20349;-82
2022/03/30 07:14:12;;;;;;;17.98;5.28;;;;;;;;;;5068887;28;20060;-82
2022/03/30 07:16:39;;;;;;;23.38;6.97;;;;;;;;;;5072509;28;20131;-81
2022/03/30 07:19:06;;;;;;;20.83;7.63;;;;;;;;;;5067464;28;20106;-82
2022/03/30 07:21:34;;;;;;;17.42;5.78;;;;;;;;;;5068630;28;20456;-82
2022/03/30 07:24:00;;;;;;;19.23;8.20;;;;;;;;;;5063890;28;20500;-82
2022/03/30 07:26:27;;;;;;;19.98;6.13;;;;;;;;;;5063343;28;20072;-82
2022/03/30 07:28:54;;;;;;;23.27;5.85;;;;;;;;;;5061178;28;20052;-83
2022/03/30 07:31:20;;;;;;;19.05;7.38;;;;;;;;;;5066977;28;20048;-82
2022/03/30 07:33:47;;;;;;;16.67;6.10;;;;;;;;;;5067094;28;20110;-82
2022/03/30 07:36:13;;;;;;;21.40;7.22;;;;;;;;;;5066861;28;20044;-82
2022/03/30 07:38:41;;;;;;;29.48;6.10;;;;;;;;;;5065917;28;20048;-82
2022/03/30 07:41:08;;;;;;;26.23;8.20;;;;;;;;;;5066224;28;20490;-82
2022/03/30 07:43:34;;;;;;;18.67;7.30;;;;;;;;;;5065974;28;20111;-82
2022/03/30 07:46:01;;;;;;;22.70;6.65;;;;;;;;;;5057152;28;20488;-82
2022/03/30 07:48:28;;;;;;;20.40;7.15;;;;;;;;;;5056830;28;20072;-82
2022/03/30 07:50:54;;;;;;;22.75;6.32;;;;;;;;;;5070361;28;20697;-82
2022/03/30 07:53:21;;;;;;;18.92;6.65;;;;;;;;;;5060188;28;20052;-81
2022/03/30 07:55:49;;;;;;;16.63;5.05;;;;;;;;;;5066449;28;20045;-82
2022/03/30 07:58:16;;;;;;;17.48;7.32;;;;;;;;;;5052130;28;20119;-82
2022/03/30 08:00:42;;;;;;;14.85;5.07;;;;;;;;;;5068676;28;20138;-82
2022/03/30 08:03:09;;;;;;;18.42;5.90;;;;;;;;;;5062210;28;20465;-82
2022/03/30 08:05:36;;;;;;;23.95;9.20;;;;;;;;;;5069750;28;20075;-82
2022/03/30 08:08:07;;;;;;;17.92;6.43;;;;;;;;;;5068053;28;20060;-82
2022/03/30 08:10:37;;;;;;;30.02;8.05;;;;;;;;;;5047946;28;20051;-82
2022/03/30 08:13:06;;;;;;;19.13;6.43;;;;;;;;;;5052279;28;20055;-82
2022/03/30 08:15:35;;;;;;;22.33;7.45;;;;;;;;;;5051194;28;20049;-82
2022/03/30 08:18:02;;;;;;;16.92;5.45;;;;;;;;;;5052075;28;20114;-82
2022/03/30 08:23:13;;;;;;;20.17;5.93;;;;;;;;;;5051397;28;20064;-82
2022/03/30 08:25:40;;;;;;;33.45;6.22;;;;;;;;;;5051746;28;20064;-83
2022/03/30 08:28:08;;;;;;;20.73;6.15;;;;;;;;;;5050735;28;20065;-82
2022/03/30 08:30:35;;;;;;;16.90;5.47;;;;;;;;;;5056660;28;20037;-83
2022/03/30 08:33:03;;;;;;;22.20;6.97;;;;;;;;;;5050809;28;20055;-82
2022/03/30 08:35:29;;;;;;;22.95;5.93;;;;;;;;;;5050893;28;20261;-83
2022/03/30 08:37:56;;;;;;;22.08;6.80;;;;;;;;;;5051171;28;20482;-83
2022/03/30 08:40:23;;;;;;;28.98;7.63;;;;;;;;;;5050688;28;20045;-83
2022/03/30 08:42:50;;;;;;;21.35;6.78;;;;;;;;;;5050317;28;20044;-83
2022/03/30 08:45:18;;;;;;;23.73;6.03;;;;;;;;;;5049991;28;20045;-83
2022/03/30 08:47:44;;;;;;;19.90;6.38;;;;;;;;;;5050812;28;20067;-83
2022/03/30 08:50:11;;;;;;;22.33;6.75;;;;;;;;;;5049733;28;20055;-83
2022/03/30 08:52:38;;;;;;;21.55;5.65;;;;;;;;;;5050905;28;20138;-83
2022/03/30 08:55:05;;;;;;;28.13;7.07;;;;;;;;;;5050311;28;20514;-83
2022/03/30 08:57:32;;;;;;;27.52;7.13;;;;;;;;;;5049411;28;20107;-83
2022/03/30 09:00:02;;;;;;;18.52;6.55;;;;;;;;;;5048590;28;20052;-82
2022/03/30 09:02:38;;;;;;;27.15;7.38;;;;;;;;;;5050400;28;20501;-83
2022/03/30 09:05:12;;;;;;;;;;;;;;;;;;5050466;28;20071;-83
2022/03/30 09:07:39;;;;;;;28.20;7.20;;;;;;;;;;5063124;28;19924;-82
2022/03/30 09:10:07;;;;;;;19.42;6.03;;;;;;;;;;5069856;28;20055;-82
2022/03/30 09:12:35;;;;;;;21.67;6.88;;;;;;;;;;5068799;28;20127;-82
2022/03/30 09:15:04;;;;;;;19.67;6.00;;;;;;;;;;5070320;28;20051;-82
2022/03/30 09:17:38;;;;;;;23.27;6.45;;;;;;;;;;5070044;28;20140;-83
2022/03/30 09:20:06;;;;;;;19.08;6.15;;;;;;;;;;5069182;28;20068;-82
2022/03/30 09:22:33;;;;;;;19.05;5.85;;;;;;;;;;5070168;28;20040;-83
2022/03/30 09:25:02;;;;;;;20.45;7.00;;;;;;;;;;5069991;28;20055;-82
2022/03/30 09:27:29;;;;;;;19.73;5.53;;;;;;;;;;5069395;28;20464;-83
2022/03/30 09:29:56;;;;;;;18.33;5.47;;;;;;;;;;5069467;28;20106;-82
2022/03/30 09:32:22;;;;;;;22.33;6.30;;;;;;;;;;5069251;28;20037;-82
2022/03/30 09:34:52;;;;;;;19.83;6.93;;;;;;;;;;5068837;28;20102;-83
2022/03/30 09:37:19;;;;;;;23.83;6.72;;;;;;;;;;5068981;28;20122;-82
2022/03/30 09:39:46;;;;;;;18.38;5.25;;;;;;;;;;5069289;28;20056;-82
2022/03/30 09:42:14;;;;;;;17.48;4.78;;;;;;;;;;5069082;28;20129;-83
2022/03/30 09:44:47;;;;;;;18.20;5.55;;;;;;;;;;5069615;28;20586;-82
2022/03/30 09:47:14;;;;;;;14.40;6.57;;;;;;;;;;5074118;28;20443;-83
2022/03/30 09:49:42;;;;;;;13.13;4.50;;;;;;;;;;5080325;28;20434;-83
2022/03/30 09:52:16;;;;;;;22.33;6.43;;;;;;;;;;5071954;28;20052;-82
2022/03/30 09:54:49;;;;;;;18.73;5.30;;;;;;;;;;5068227;28;20102;-82
2022/03/30 09:57:19;;;;;;;20.00;6.55;;;;;;;;;;5069464;28;20434;-82
2022/03/30 09:59:59;;;;;;;18.98;5.38;;;;;;;;;;5069508;28;20040;-82
2022/03/30 10:02:26;;;;;;;17.40;4.78;;;;;;;;;;5069676;28;20056;-82
2022/03/30 10:04:54;;;;;;;17.58;4.78;;;;;;;;;;5083354;28;20562;-82
2022/03/30 10:07:22;;;;;;;15.02;4.85;;;;;;;;;;5066435;28;20224;-82
2022/03/30 10:09:49;;;;;;;16.40;5.72;;;;;;;;;;5063466;28;20052;-82
2022/03/30 10:12:17;;;;;;;14.80;5.85;;;;;;;;;;5064102;28;20137;-83
2022/03/30 10:14:44;;;;;;;21.38;7.25;;;;;;;;;;5068783;28;20421;-82
2022/03/30 10:17:11;;;;;;;15.73;6.50;;;;;;;;;;5061312;28;20472;-82
2022/03/30 10:19:42;;;;;;;17.67;5.88;;;;;;;;;;5060970;28;20044;-82
2022/03/30 10:22:17;;;;;;;21.27;7.50;;;;;;;;;;5068602;28;20044;-82
2022/03/30 10:25:01;;;;;;;19.83;7.20;;;;;;;;;;5056695;28;20076;-82
2022/03/30 10:27:33;;;;;;;20.38;6.40;;;;;;;;;;5062312;28;20076;-82
2022/03/30 10:30:02;;;;;;;20.90;7.63;;;;;;;;;;5064539;28;20049;-82
2022/03/30 10:32:33;;;;;;;19.40;8.63;;;;;;;;;;5067762;28;20044;-82
2022/03/30 10:35:03;;;;;;;20.30;7.93;;;;;;;;;;5058413;28;20045;-82
2022/03/30 10:37:33;;;;;;;30.48;8.95;;;;;;;;;;5049861;28;20048;-82
2022/03/30 10:40:16;;;;;;;22.20;9.32;;;;;;;;;;5062945;28;20212;-82
2022/03/30 10:43:03;;;;;;;24.02;9.05;;;;;;;;;;5061001;28;20041;-82
2022/03/30 10:45:42;;;;;;;23.15;7.18;;;;;;;;;;5053113;28;20486;-82
2022/03/30 10:48:15;;;;;;;25.45;7.80;;;;;;;;;;5049970;28;20102;-82
2022/03/30 10:50:43;;;;;;;15.75;6.45;;;;;;;;;;5067049;28;20055;-82
2022/03/30 10:53:38;;;;;;;14.25;5.80;;;;;;;;;;5059957;28;20144;-82
2022/03/30 10:56:36;;;;;;;14.98;6.10;;;;;;;;;;5056497;28;20052;-82
2022/03/30 10:59:17;;;;;;;24.42;7.82;;;;;;;;;;5066082;28;20049;-82
2022/03/30 11:01:51;;;;;;;18.75;7.13;;;;;;;;;;5055885;28;20106;-82
2022/03/30 11:04:25;;;;;;;18.27;6.03;;;;;;;;;;5053561;28;20044;-83
2022/03/30 11:07:39;;;;;;;12.73;5.78;;;;;;;;;;5060114;28;20075;-82
2022/03/30 11:10:27;;;;;;;17.33;7.30;;;;;;;;;;5066978;28;20083;-82
2022/03/30 11:13:05;;;;;;;19.10;6.75;;;;;;;;;;5068256;28;20098;-82
2022/03/30 11:16:07;;;;;;;16.13;7.85;;;;;;;;;;5063804;28;20044;-82
2022/03/30 11:18:35;;;;;;;19.92;8.30;;;;;;;;;;5055581;28;20140;-82
2022/03/30 11:21:16;;;;;;;21.63;8.88;;;;;;;;;;5064133;28;20063;-83
2022/03/30 11:23:55;;;;;;;24.55;7.75;;;;;;;;;;5055729;28;20543;-82
2022/03/30 11:26:23;;;;;;;20.73;8.15;;;;;;;;;;5064687;28;20135;-83
2022/03/30 11:28:49;;;;;;;16.23;7.18;;;;;;;;;;5061402;28;20044;-83
2022/03/30 11:31:21;;;;;;;19.85;7.53;;;;;;;;;;5065167;28;20044;-83
2022/03/30 11:34:30;;;;;;;14.40;6.32;;;;;;;;;;5061351;28;20346;-83
2022/03/30 11:36:57;;;;;;;15.75;6.35;;;;;;;;;;5071398;28;20102;-84
2022/03/30 11:39:33;;;;;;;12.90;5.85;;;;;;;;;;5064580;28;20049;-83
2022/03/30 11:42:01;;;;;;;13.25;4.90;;;;;;;;;;5064606;28;20076;-83
2022/03/30 11:47:17;;;;;;;9.40;4.20;;;;;;;;;;5053647;28;20106;-83
2022/03/30 11:49:50;;;;;;;11.98;5.43;;;;;;;;;;5050959;28;20052;-83
2022/03/30 11:52:17;;;;;;;9.88;5.25;;;;;;;;;;5069433;28;20102;-83
2022/03/30 11:54:47;;;;;;;11.43;4.85;;;;;;;;;;5061684;28;20041;-83
2022/03/30 11:57:15;;;;;;;9.23;4.75;;;;;;;;;;5059684;28;20088;-83
2022/03/30 11:59:41;;;;;;;11.50;4.93;;;;;;;;;;5068257;28;20056;-82
2022/03/30 12:02:08;;;;;;;11.00;5.70;;;;;;;;;;5067136;28;20510;-82
2022/03/30 12:04:36;;;;;;;12.13;5.85;;;;;;;;;;5064259;28;20610;-83
2022/03/30 12:07:03;;;;;;;14.15;5.07;;;;;;;;;;5067001;28;20049;-83
2022/03/30 12:09:33;;;;;;;9.75;5.95;;;;;;;;;;5067289;28;20083;-83
2022/03/30 12:12:03;;;;;;;13.43;6.70;;;;;;;;;;5061821;28;20139;-83
2022/03/30 12:14:30;;;;;;;16.77;6.40;;;;;;;;;;5064648;28;20412;-83
2022/03/30 12:16:58;;;;;;;12.32;5.72;;;;;;;;;;5066079;28;20048;-83
2022/03/30 12:19:25;;;;;;;10.40;5.30;;;;;;;;;;5065854;28;20064;-83
2022/03/30 12:21:54;;;;;;;12.63;5.30;;;;;;;;;;5067521;28;20454;-83
2022/03/30 12:24:22;;;;;;;9.20;5.38;;;;;;;;;;5065776;28;20305;-84
2022/03/30 12:26:53;;;;;;;6.60;4.00;;;;;;;;;;5068165;28;20084;-83
2022/03/30 12:29:20;;;;;;;9.25;4.40;;;;;;;;;;5067015;28;20548;-83
2022/03/30 12:31:52;;;;;;;14.40;6.63;;;;;;;;;;5067209;28;20076;-83
2022/03/30 12:34:21;;;;;;;10.80;6.15;;;;;;;;;;5069004;28;20054;-84
2022/03/30 12:36:49;;;;;;;15.98;7.07;;;;;;;;;;5069775;28;20068;-83
2022/03/30 12:39:18;;;;;;;18.25;7.25;;;;;;;;;;5066816;28;20091;-83
2022/03/30 12:41:45;;;;;;;15.00;8.00;;;;;;;;;;5070056;28;20045;-83
2022/03/30 12:44:20;;;;;;;18.85;7.97;;;;;;;;;;5069830;28;20048;-83
2022/03/30 12:46:46;;;;;;;12.07;6.68;;;;;;;;;;5069481;28;20040;-84
2022/03/30 12:49:13;;;;;;;14.63;6.93;;;;;;;;;;5070149;28;20468;-83
2022/03/30 12:51:40;;;;;;;12.05;6.68;;;;;;;;;;5071481;28;20144;-84
2022/03/30 12:54:22;;;;;;;13.25;5.47;;;;;;;;;;5069397;28;20440;-83
2022/03/30 12:56:48;;;;;;;10.95;5.75;;;;;;;;;;5067173;28;20052;-83
2022/03/30 12:59:19;;;;;;;15.05;5.55;;;;;;;;;;5070918;28;20458;-83
2022/03/30 13:01:49;;;;;;;14.18;6.38;;;;;;;;;;5068933;28;20144;-84
2022/03/30 13:04:20;;;;;;;13.38;6.38;;;;;;;;;;5068219;28;20451;-83
2022/03/30 13:07:09;;;;;;;16.67;8.38;;;;;;;;;;5070424;28;20048;-82
2022/03/30 13:09:38;;;;;;;17.52;7.85;;;;;;;;;;5067075;28;20080;-83
2022/03/30 13:12:06;;;;;;;15.25;7.95;;;;;;;;;;5071292;28;20749;-83
2022/03/30 13:14:33;;;;;;;13.80;7.38;;;;;;;;;;5069958;28;20060;-83
2022/03/30 13:17:02;;;;;;;16.90;8.27;;;;;;;;;;5066711;28;20135;-83
2022/03/30 13:19:29;;;;;;;15.10;8.30;;;;;;;;;;5070037;28;20170;-83
2022/03/30 13:21:57;;;;;;;16.92;9.07;;;;;;;;;;5069844;28;20131;-83
2022/03/30 13:24:26;;;;;;;19.05;9.80;;;;;;;;;;5069861;28;20594;-83
2022/03/30 13:26:55;;;;;;;18.55;9.05;;;;;;;;;;5070160;28;20048;-83
2022/03/30 13:29:22;;;;;;;24.05;11.57;;;;;;;;;;5070073;28;20490;-83
2022/03/30 13:31:49;;;;;;;17.15;10.10;;;;;;;;;;5068887;28;20129;-83
2022/03/30 13:34:17;;;;;;;21.30;10.25;;;;;;;;;;5069821;28;20083;-83
2022/03/30 13:36:44;;;;;;;20.95;10.75;;;;;;;;;;5068843;28;20048;-83
2022/03/30 13:39:11;;;;;;;21.88;11.10;;;;;;;;;;5067786;28;20053;-84
2022/03/30 13:41:38;;;;;;;21.25;12.13;;;;;;;;;;5073048;28;20122;-84
2022/03/30 13:44:07;;;;;;;23.23;11.00;;;;;;;;;;5068968;28;20048;-83
2022/03/30 13:46:34;;;;;;;17.60;10.38;;;;;;;;;;5066989;28;20531;-84
2022/03/30 13:49:01;;;;;;;20.90;10.52;;;;;;;;;;5068069;28;20772;-83
2022/03/30 13:51:27;;;;;;;22.48;10.05;;;;;;;;;;5068724;28;20141;-84
2022/03/30 13:53:54;;;;;;;17.30;8.75;;;;;;;;;;5068384;28;20068;-83
2022/03/30 13:56:20;;;;;;;15.38;8.30;;;;;;;;;;5068619;28;20335;-83
2022/03/30 13:58:50;;;;;;;14.90;9.10;;;;;;;;;;5070017;28;20126;-83
2022/03/30 14:01:19;;;;;;;13.38;8.00;;;;;;;;;;5069433;28;20524;-83
2022/03/30 14:03:46;;;;;;;19.15;10.02;;;;;;;;;;5067865;28;20068;-83
2022/03/30 14:06:12;;;;;;;17.48;8.73;;;;;;;;;;5069287;28;20459;-84
2022/03/30 14:08:39;;;;;;;19.77;8.70;;;;;;;;;;5063172;28;20508;-83
2022/03/30 14:11:05;;;;;;;22.15;11.38;;;;;;;;;;5069042;28;20513;-83
2022/03/30 14:13:32;;;;;;;22.05;10.43;;;;;;;;;;5067464;28;20076;-83
2022/03/30 14:15:59;;;;;;;16.90;9.00;;;;;;;;;;5066831;28;20048;-83
2022/03/30 14:18:27;;;;;;;16.85;8.88;;;;;;;;;;5068304;28;20064;-83
2022/03/30 14:20:54;;;;;;;27.85;12.25;;;;;;;;;;5068509;28;20437;-83
2022/03/30 14:23:21;;;;;;;13.60;8.35;;;;;;;;;;5068012;28;20114;-84
2022/03/30 14:25:48;;;;;;;17.58;9.48;;;;;;;;;;5067886;28;20465;-83
2022/03/30 14:28:15;;;;;;;18.83;8.85;;;;;;;;;;5066134;28;20094;-84
2022/03/30 14:30:42;;;;;;;18.98;9.82;;;;;;;;;;5071045;28;20367;-84
2022/03/30 14:33:09;;;;;;;16.38;9.75;;;;;;;;;;5066620;28;20040;-83
2022/03/30 14:35:37;;;;;;;17.80;10.55;;;;;;;;;;5064584;28;20552;-84
2022/03/30 14:38:06;;;;;;;15.55;8.43;;;;;;;;;;5068346;28;20036;-83
2022/03/30 14:40:33;;;;;;;18.00;8.43;;;;;;;;;;5065901;28;20044;-83
2022/03/30 14:43:00;;;;;;;11.93;7.68;;;;;;;;;;5075182;28;20057;-83
2022/03/30 14:45:26;;;;;;;12.30;7.05;;;;;;;;;;5072202;28;20102;-85
2022/03/30 14:47:53;;;;;;;13.05;7.53;;;;;;;;;;5072671;28;20509;-83
2022/03/30 14:50:20;;;;;;;13.55;6.75;;;;;;;;;;5072347;28;20049;-84